createdAt,value
2018-05-10T00:00:41.799Z,5.43
2018-05-10T00:02:18.931Z,6.07
2018-05-10T00:03:56.589Z,4.43
2018-05-10T00:05:34.539Z,4.77
2018-05-10T00:07:12.067Z,4.70
2018-05-10T00:08:49.509Z,4.63
2018-05-10T00:10:25.608Z,5.10
2018-05-10T00:12:05.115Z,4.30
2018-05-10T00:13:42.554Z,5.43
2018-05-10T00:15:18.423Z,5.43
2018-05-10T00:16:56.560Z,4.50
2018-05-10T00:18:35.018Z,4.50
2018-05-10T00:20:12.608Z,4.37
2018-05-10T00:21:49.649Z,4.60
2018-05-10T00:23:26.517Z,5.40
2018-05-10T00:25:03.949Z,5.20
2018-05-10T00:26:41.633Z,4.80
2018-05-10T00:28:21.558Z,4.70
2018-05-10T00:29:58.790Z,4.70
2018-05-10T00:31:37.854Z,4.10
2018-05-10T00:33:16.010Z,4.80
2018-05-10T00:34:53.838Z,4.57
2018-05-10T00:36:32.589Z,4.13
2018-05-10T00:38:10.337Z,4.50
2018-05-10T00:39:48.221Z,4.73
2018-05-10T00:41:27.858Z,5.87
2018-05-10T00:43:02.930Z,4.97
2018-05-10T00:44:41.536Z,6.10
2018-05-10T01:03:59.675Z,5.40
2018-05-10T01:05:37.745Z,5.00
2018-05-10T01:07:15.859Z,5.77
2018-05-10T01:08:53.432Z,5.43
2018-05-10T01:10:32.022Z,4.50
2018-05-10T01:12:08.824Z,4.77
2018-05-10T01:13:45.684Z,5.47
2018-05-10T01:15:23.940Z,5.13
2018-05-10T01:17:00.274Z,5.47
2018-05-10T01:18:37.755Z,5.53
2018-05-10T01:20:15.654Z,5.37
2018-05-10T01:21:54.582Z,5.10
2018-05-10T01:23:31.906Z,4.50
2018-05-10T01:25:09.142Z,4.87
2018-05-10T01:44:26.618Z,5.30
2018-05-10T01:46:04.822Z,4.93
2018-05-10T02:05:23.262Z,5.50
2018-05-10T02:07:01.153Z,6.60
2018-05-10T02:08:38.783Z,4.60
2018-05-10T02:10:17.736Z,5.23
2018-05-10T02:11:54.140Z,5.97
2018-05-10T02:13:30.660Z,5.47
2018-05-10T02:15:07.567Z,5.77
2018-05-10T02:16:45.744Z,5.43
2018-05-10T02:18:23.353Z,5.13
2018-05-10T02:20:02.703Z,5.00
2018-05-10T02:21:39.705Z,4.90
2018-05-10T02:23:18.084Z,5.33
2018-05-10T02:24:54.832Z,5.27
2018-05-10T02:26:32.772Z,6.80
2018-05-10T02:28:10.073Z,5.47
2018-05-10T02:29:47.438Z,5.10
2018-05-10T02:31:26.326Z,5.03
2018-05-10T02:33:03.262Z,5.33
2018-05-10T02:34:39.842Z,6.33
2018-05-10T02:36:18.433Z,6.73
2018-05-10T02:37:54.677Z,5.83
2018-05-10T02:39:33.764Z,5.20
2018-05-10T02:41:15.818Z,5.27
2018-05-10T02:42:56.304Z,5.00
2018-05-10T03:02:14.729Z,5.53
2018-05-10T03:03:52.397Z,6.10
2018-05-10T03:05:28.900Z,5.70
2018-05-10T03:07:07.216Z,6.97
2018-05-10T03:08:45.859Z,6.00
2018-05-10T03:10:25.496Z,6.13
2018-05-10T03:12:01.762Z,5.97
2018-05-10T03:13:39.578Z,7.17
2018-05-10T03:15:17.209Z,6.67
2018-05-10T03:16:54.245Z,6.93
2018-05-10T03:18:31.692Z,7.30
2018-05-10T03:20:09.517Z,6.83
2018-05-10T03:21:47.829Z,6.50
2018-05-10T03:23:27.408Z,6.53
2018-05-10T03:25:05.407Z,7.37
2018-05-10T03:26:41.712Z,6.30
2018-05-10T03:46:04.184Z,9.07
2018-05-10T03:47:41.159Z,10.60
2018-05-10T03:49:16.791Z,7.77
2018-05-10T03:50:54.906Z,9.17
2018-05-10T03:52:32.567Z,7.53
2018-05-10T03:54:10.336Z,7.07
2018-05-10T03:55:47.771Z,7.70
2018-05-10T03:57:24.478Z,7.27
2018-05-10T03:59:03.202Z,7.10
2018-05-10T04:00:42.928Z,7.60
2018-05-10T04:02:20.038Z,8.33
2018-05-10T04:04:29.147Z,8.03
2018-05-10T04:06:23.789Z,7.67
2018-05-10T04:08:16.424Z,7.73
2018-05-10T04:10:09.576Z,8.17
2018-05-10T04:11:46.935Z,7.77
2018-05-10T04:13:23.592Z,8.07
2018-05-10T04:15:00.845Z,9.37
2018-05-10T04:16:37.522Z,8.43
2018-05-10T04:18:16.163Z,7.33
2018-05-10T04:37:34.768Z,7.80
2018-05-10T04:39:12.792Z,7.77
2018-05-10T04:40:49.579Z,8.93
2018-05-10T04:42:26.733Z,7.10
2018-05-10T04:44:04.577Z,8.67
2018-05-10T04:45:43.026Z,7.37
2018-05-10T04:47:21.217Z,7.17
2018-05-10T04:48:58.869Z,7.13
2018-05-10T04:50:35.537Z,6.50
2018-05-10T04:52:11.744Z,7.00
2018-05-10T04:53:48.420Z,7.83
2018-05-10T04:55:25.812Z,6.93
2018-05-10T04:57:03.888Z,7.00
2018-05-10T04:58:42.317Z,7.57
2018-05-10T05:00:19.008Z,6.90
2018-05-10T05:02:00.430Z,7.73
2018-05-10T05:03:37.073Z,7.03
2018-05-10T05:05:14.089Z,7.17
2018-05-10T05:06:54.798Z,7.20
2018-05-10T05:08:31.422Z,7.20
2018-05-10T05:10:09.625Z,10.27
2018-05-10T05:11:46.815Z,7.60
2018-05-10T05:13:25.034Z,9.70
2018-05-10T05:32:44.257Z,9.27
2018-05-10T05:34:22.874Z,9.30
2018-05-10T05:36:00.210Z,9.97
2018-05-10T05:37:38.826Z,9.53
2018-05-10T05:39:17.985Z,10.17
2018-05-10T05:40:56.944Z,8.80
2018-05-10T05:42:34.028Z,9.27
2018-05-10T05:44:10.965Z,9.00
2018-05-10T05:45:48.412Z,10.83
2018-05-10T05:47:26.394Z,8.60
2018-05-10T05:49:02.780Z,9.37
2018-05-10T05:50:40.262Z,10.47
2018-05-10T05:52:20.525Z,10.90
2018-05-10T05:53:58.058Z,11.00
2018-05-10T05:55:34.950Z,11.03
2018-05-10T05:57:12.617Z,12.60
2018-05-10T05:58:52.056Z,11.77
2018-05-10T06:00:27.796Z,12.43
2018-05-10T06:20:05.353Z,9.37
2018-05-10T06:21:47.091Z,9.50
2018-05-10T06:23:25.721Z,10.70
2018-05-10T06:25:06.717Z,10.13
2018-05-10T06:26:45.899Z,10.37
2018-05-10T06:28:24.030Z,9.37
2018-05-10T06:31:50.543Z,10.27
2018-05-10T06:54:26.961Z,10.27
2018-05-10T06:56:07.528Z,9.17
2018-05-10T06:57:45.397Z,10.17
2018-05-10T06:59:22.154Z,10.50
2018-05-10T07:00:58.963Z,11.20
2018-05-10T07:02:39.756Z,9.70
2018-05-10T07:04:16.810Z,10.60
2018-05-10T07:05:55.390Z,9.90
2018-05-10T07:07:34.904Z,9.77
2018-05-10T07:09:15.731Z,11.07
2018-05-10T07:10:52.384Z,10.20
2018-05-10T07:12:32.456Z,9.57
2018-05-10T07:14:09.746Z,9.87
2018-05-10T07:15:49.173Z,10.43
2018-05-10T07:17:27.458Z,13.17
2018-05-10T07:19:06.014Z,10.70
2018-05-10T07:20:45.608Z,10.23
2018-05-10T07:22:22.895Z,10.00
2018-05-10T07:24:00.142Z,10.10
2018-05-10T07:27:19.518Z,9.98
2018-05-10T07:28:59.783Z,10.93
2018-05-10T07:30:36.376Z,8.93
2018-05-10T07:32:12.543Z,11.43
2018-05-10T07:33:51.588Z,9.87
2018-05-10T07:35:46.729Z,10.80
2018-05-10T07:37:27.169Z,9.93
2018-05-10T07:39:05.896Z,10.83
2018-05-10T07:40:43.942Z,11.20
2018-05-10T07:42:21.566Z,13.13
2018-05-10T07:43:59.683Z,10.07
2018-05-10T07:45:37.683Z,9.20
2018-05-10T07:47:15.107Z,12.13
2018-05-10T07:48:53.081Z,9.70
2018-05-10T07:50:31.619Z,9.77
2018-05-10T07:52:08.639Z,11.20
2018-05-10T07:53:45.811Z,11.10
2018-05-10T07:55:22.862Z,9.33
2018-05-10T07:56:58.826Z,9.90
2018-05-10T07:58:36.114Z,11.10
2018-05-10T08:00:12.309Z,10.50
2018-05-10T08:01:48.058Z,9.77
2018-05-10T08:03:26.033Z,10.00
2018-05-10T08:05:03.719Z,12.57
2018-05-10T08:07:02.016Z,10.93
2018-05-10T08:08:51.643Z,9.23
2018-05-10T08:10:33.929Z,8.97
2018-05-10T08:12:12.236Z,10.23
2018-05-10T08:13:49.853Z,8.67
2018-05-10T08:15:27.344Z,9.00
2018-05-10T08:17:05.973Z,9.83
2018-05-10T08:18:47.912Z,8.87
2018-05-10T08:20:28.733Z,8.97
2018-05-10T08:22:09.778Z,8.07
2018-05-10T08:23:51.664Z,8.30
2018-05-10T08:25:30.175Z,7.40
2018-05-10T08:27:07.526Z,7.97
2018-05-10T08:28:44.853Z,7.37
2018-05-10T08:30:23.728Z,8.00
2018-05-10T08:32:02.772Z,8.10
2018-05-10T08:33:44.987Z,9.80
2018-05-10T08:35:22.102Z,7.80
2018-05-10T08:37:01.134Z,7.97
2018-05-10T08:38:37.944Z,7.77
2018-05-10T08:40:14.739Z,9.20
2018-05-10T08:41:55.588Z,7.97
2018-05-10T08:43:34.422Z,7.40
2018-05-10T08:45:14.416Z,7.33
2018-05-10T08:46:51.183Z,8.27
2018-05-10T08:48:28.463Z,8.40
2018-05-10T08:50:05.557Z,8.47
2018-05-10T08:51:43.440Z,6.97
2018-05-10T08:53:20.799Z,7.17
2018-05-10T08:54:58.333Z,7.23
2018-05-10T08:56:36.747Z,6.90
2018-05-10T08:58:15.507Z,7.37
2018-05-10T09:00:01.332Z,6.17
2018-05-10T09:01:39.056Z,6.93
2018-05-10T09:03:17.892Z,6.43
2018-05-10T09:04:56.333Z,8.00
2018-05-10T09:06:33.728Z,5.87
2018-05-10T09:08:11.354Z,5.70
2018-05-10T09:09:48.485Z,6.10
2018-05-10T09:11:26.341Z,5.33
2018-05-10T09:13:03.277Z,6.30
2018-05-10T09:14:43.700Z,5.63
2018-05-10T09:16:21.601Z,5.23
2018-05-10T09:18:02.109Z,4.40
2018-05-10T09:19:39.801Z,4.30
2018-05-10T09:21:18.757Z,5.40
2018-05-10T09:23:00.346Z,7.67
2018-05-10T09:24:37.497Z,5.07
2018-05-10T09:26:17.048Z,3.83
2018-05-10T09:31:18.733Z,4.17
2018-05-10T09:32:59.262Z,3.83
2018-05-10T09:39:04.905Z,6.60
2018-05-10T09:40:47.138Z,3.90
2018-05-10T09:42:31.723Z,3.77
2018-05-10T09:44:14.120Z,4.93
2018-05-10T09:45:55.867Z,3.10
2018-05-10T09:47:39.279Z,3.43
2018-05-10T09:49:36.235Z,3.30
2018-05-10T09:51:14.082Z,3.37
2018-05-10T09:52:49.991Z,3.57
2018-05-10T09:54:25.838Z,5.57
2018-05-10T09:56:00.970Z,4.57
2018-05-10T09:57:36.999Z,3.10
2018-05-10T09:59:12.794Z,5.07
2018-05-10T10:00:52.546Z,3.43
2018-05-10T10:02:28.499Z,3.70
2018-05-10T10:04:03.717Z,2.83
2018-05-10T10:05:38.854Z,2.70
2018-05-10T10:07:14.009Z,2.90
2018-05-10T10:08:49.143Z,2.73
2018-05-10T10:10:25.099Z,2.80
2018-05-10T10:12:00.204Z,4.03
2018-05-10T10:13:36.827Z,2.50
2018-05-10T10:15:12.945Z,2.60
2018-05-10T10:16:49.013Z,2.93
2018-05-10T10:18:24.807Z,2.90
2018-05-10T10:20:00.092Z,2.57
2018-05-10T10:21:49.985Z,3.50
2018-05-10T10:23:25.099Z,2.93
2018-05-10T10:25:00.226Z,3.30
2018-05-10T10:26:35.476Z,3.20
2018-05-10T10:28:10.594Z,5.67
2018-05-10T10:29:45.929Z,2.90
2018-05-10T10:31:22.657Z,3.10
2018-05-10T10:32:57.774Z,4.67
2018-05-10T10:34:33.295Z,2.80
2018-05-10T10:36:08.289Z,2.87
2018-05-10T10:37:43.391Z,3.70
2018-05-10T10:39:18.472Z,2.87
2018-05-10T10:40:55.382Z,4.13
2018-05-10T10:42:31.239Z,3.40
2018-05-10T10:44:07.393Z,3.57
2018-05-10T10:45:43.364Z,3.47
2018-05-10T10:47:19.376Z,2.73
2018-05-10T10:50:48.643Z,2.57
2018-05-10T10:52:23.694Z,2.60
2018-05-10T10:53:59.241Z,4.30
2018-05-10T10:55:39.157Z,2.80
2018-05-10T10:57:15.157Z,4.47
2018-05-10T10:58:52.272Z,3.20
2018-05-10T11:00:30.534Z,2.10
2018-05-10T11:02:06.175Z,2.30
2018-05-10T11:03:42.204Z,2.20
2018-05-10T11:05:21.728Z,2.30
2018-05-10T11:06:57.246Z,2.90
2018-05-10T11:08:32.475Z,2.73
2018-05-10T11:10:10.614Z,3.00
2018-05-10T11:11:46.790Z,3.00
2018-05-10T11:13:22.965Z,2.70
2018-05-10T11:14:58.390Z,4.93
2018-05-10T11:16:33.758Z,2.70
2018-05-10T11:18:11.119Z,2.60
2018-05-10T11:19:46.195Z,2.43
2018-05-10T11:21:21.695Z,3.87
2018-05-10T11:22:57.929Z,2.83
2018-05-10T11:24:33.270Z,2.63
2018-05-10T11:26:08.455Z,4.40
2018-05-10T11:27:46.600Z,3.30
2018-05-10T11:29:21.705Z,4.90
2018-05-10T11:30:57.771Z,2.93
2018-05-10T11:32:33.228Z,3.03
2018-05-10T11:34:09.181Z,3.60
2018-05-10T11:35:44.545Z,2.63
2018-05-10T11:37:20.036Z,3.63
2018-05-10T11:38:55.625Z,3.77
2018-05-10T11:40:31.239Z,2.67
2018-05-10T11:42:07.249Z,3.23
2018-05-10T11:43:42.384Z,3.80
2018-05-10T11:45:18.218Z,2.97
2018-05-10T11:46:53.301Z,2.30
2018-05-10T11:48:29.619Z,2.70
2018-05-10T11:50:04.855Z,3.27
2018-05-10T11:51:40.073Z,3.00
2018-05-10T11:53:15.846Z,3.10
2018-05-10T11:54:52.971Z,3.17
2018-05-10T11:56:28.686Z,2.73
2018-05-10T11:58:03.996Z,4.33
2018-05-10T11:59:40.394Z,4.83
2018-05-10T12:01:15.946Z,3.20
2018-05-10T12:02:52.030Z,4.23
2018-05-10T12:04:31.320Z,6.07
2018-05-10T12:06:10.276Z,3.60
2018-05-10T12:07:54.134Z,4.23
2018-05-10T12:09:30.469Z,2.70
2018-05-10T12:11:05.827Z,3.10
2018-05-10T12:12:40.921Z,2.60
2018-05-10T12:14:16.176Z,3.67
2018-05-10T12:15:51.248Z,3.17
2018-05-10T12:17:26.329Z,2.77
2018-05-10T12:19:03.157Z,3.10
2018-05-10T12:20:38.462Z,5.03
2018-05-10T12:22:13.525Z,3.30
2018-05-10T12:23:50.451Z,2.80
2018-05-10T12:25:28.252Z,3.67
2018-05-10T12:27:03.256Z,2.70
2018-05-10T12:28:38.292Z,7.83
2018-05-10T12:30:14.125Z,3.00
2018-05-10T12:31:49.191Z,3.37
2018-05-10T12:33:24.248Z,3.30
2018-05-10T12:34:59.344Z,3.83
2018-05-10T12:36:34.463Z,3.73
2018-05-10T12:38:10.338Z,4.30
2018-05-10T12:39:45.388Z,3.47
2018-05-10T12:41:20.455Z,3.20
2018-05-10T12:42:57.386Z,3.10
2018-05-10T12:44:32.438Z,3.47
2018-05-10T12:46:07.527Z,2.83
2018-05-10T12:47:42.577Z,3.40
2018-05-10T12:49:18.422Z,3.73
2018-05-10T12:50:53.604Z,3.27
2018-05-10T12:52:28.644Z,2.97
2018-05-10T12:54:03.738Z,3.23
2018-05-10T12:55:38.862Z,4.50
2018-05-10T12:57:14.675Z,3.30
2018-05-10T12:58:49.729Z,3.43
2018-05-10T13:00:24.831Z,3.00
2018-05-10T13:01:59.920Z,2.72
2018-05-10T13:03:34.962Z,2.80
2018-05-10T13:05:10.009Z,9.03
2018-05-10T13:06:45.109Z,3.17
2018-05-10T13:08:20.213Z,4.70
2018-05-10T13:09:55.493Z,3.50
2018-05-10T13:11:31.331Z,3.10
2018-05-10T13:13:06.433Z,5.70
2018-05-10T13:14:41.575Z,2.77
2018-05-10T13:16:16.733Z,2.50
2018-05-10T13:17:51.826Z,4.33
2018-05-10T13:19:27.898Z,4.40
2018-05-10T13:21:02.908Z,2.80
2018-05-10T13:22:37.970Z,2.80
2018-05-10T13:24:13.073Z,2.30
2018-05-10T13:25:48.142Z,2.23
2018-05-10T13:27:23.294Z,2.63
2018-05-10T13:28:58.312Z,2.20
2018-05-10T13:30:33.438Z,2.10
2018-05-10T13:32:08.476Z,1.80
2018-05-10T13:33:43.557Z,2.80
2018-05-10T13:35:18.660Z,2.20
2018-05-10T13:36:53.872Z,2.50
2018-05-10T13:38:29.044Z,2.63
2018-05-10T13:40:04.425Z,1.80
2018-05-10T13:41:41.255Z,3.83
2018-05-10T13:43:18.725Z,3.40
2018-05-10T13:44:55.123Z,3.93
2018-05-10T13:46:30.693Z,3.60
2018-05-10T13:48:06.152Z,2.20
2018-05-10T13:49:41.878Z,2.50
2018-05-10T13:51:16.956Z,2.10
2018-05-10T13:52:52.878Z,2.50
2018-05-10T13:54:28.710Z,2.87
2018-05-10T13:56:03.763Z,1.83
2018-05-10T13:57:39.136Z,2.47
2018-05-10T13:59:15.192Z,2.30
2018-05-10T14:00:51.184Z,2.40
2018-05-10T14:02:26.415Z,2.60
2018-05-10T14:04:01.477Z,2.83
2018-05-10T14:05:36.574Z,3.50
2018-05-10T14:07:11.657Z,3.70
2018-05-10T14:08:46.697Z,4.30
2018-05-10T14:10:21.974Z,4.47
2018-05-10T14:11:57.067Z,3.07
2018-05-10T14:13:32.898Z,3.40
2018-05-10T14:15:07.985Z,3.50
2018-05-10T14:16:43.891Z,2.80
2018-05-10T14:18:18.976Z,2.93
2018-05-10T14:19:54.089Z,1.97
2018-05-10T14:21:29.180Z,2.23
2018-05-10T14:23:04.239Z,1.63
2018-05-10T14:24:39.451Z,1.87
2018-05-10T14:26:15.081Z,2.37
2018-05-10T14:27:50.379Z,2.37
2018-05-10T14:29:25.594Z,2.20
2018-05-10T14:31:00.661Z,2.33
2018-05-10T14:32:35.776Z,2.03
2018-05-10T14:34:11.662Z,1.90
2018-05-10T14:35:46.726Z,1.90
2018-05-10T14:37:21.814Z,3.13
2018-05-10T14:38:57.429Z,2.40
2018-05-10T14:40:32.536Z,3.93
2018-05-10T14:42:07.593Z,2.53
2018-05-10T14:43:43.454Z,2.37
2018-05-10T14:45:18.532Z,1.90
2018-05-10T14:46:53.694Z,2.90
2018-05-10T14:48:28.759Z,2.30
2018-05-10T14:50:03.822Z,2.00
2018-05-10T14:51:38.920Z,2.37
2018-05-10T14:53:14.329Z,9.27
2018-05-10T14:54:49.412Z,2.00
2018-05-10T14:56:24.515Z,2.30
2018-05-10T14:57:59.951Z,3.30
2018-05-10T14:59:35.822Z,2.10
2018-05-10T15:01:11.841Z,1.80
2018-05-10T15:02:47.311Z,2.13
2018-05-10T15:04:23.168Z,2.27
2018-05-10T15:05:58.257Z,1.60
2018-05-10T15:07:33.321Z,1.73
2018-05-10T15:09:08.444Z,1.90
2018-05-10T15:10:43.512Z,2.00
2018-05-10T15:12:18.615Z,2.00
2018-05-10T15:13:53.831Z,2.20
2018-05-10T15:15:28.881Z,3.17
2018-05-10T15:17:03.931Z,2.10
2018-05-10T15:18:39.020Z,3.07
2018-05-10T15:20:14.067Z,2.00
2018-05-10T15:21:49.122Z,1.87
2018-05-10T15:23:24.223Z,2.13
2018-05-10T15:24:59.284Z,2.90
2018-05-10T15:26:34.420Z,1.97
2018-05-10T15:28:09.490Z,2.07
2018-05-10T15:29:44.611Z,1.90
2018-05-10T15:31:19.735Z,1.80
2018-05-10T15:32:56.045Z,1.83
2018-05-10T15:34:31.105Z,1.70
2018-05-10T15:36:06.206Z,1.50
2018-05-10T15:37:41.248Z,1.97
2018-05-10T15:39:18.267Z,2.70
2018-05-10T15:40:53.320Z,1.80
2018-05-10T15:42:28.958Z,1.97
2018-05-10T15:44:04.024Z,2.00
2018-05-10T15:45:39.219Z,1.37
2018-05-10T15:47:14.304Z,1.77
2018-05-10T15:48:49.405Z,1.60
2018-05-10T15:50:24.473Z,1.90
2018-05-10T15:51:59.527Z,2.07
2018-05-10T15:53:34.597Z,2.37
2018-05-10T15:55:10.126Z,2.13
2018-05-10T15:56:45.246Z,2.20
2018-05-10T15:58:20.301Z,2.47
2018-05-10T15:59:55.711Z,2.00
2018-05-10T16:01:30.832Z,1.80
2018-05-10T16:03:05.881Z,2.30
2018-05-10T16:04:40.933Z,1.97
2018-05-10T16:06:16.243Z,1.90
2018-05-10T16:07:51.371Z,1.80
2018-05-10T16:09:26.450Z,1.87
2018-05-10T16:11:01.513Z,2.03
2018-05-10T16:12:36.699Z,2.33
2018-05-10T16:14:11.795Z,4.73
2018-05-10T16:15:46.856Z,4.37
2018-05-10T16:17:21.904Z,3.97
2018-05-10T16:18:57.052Z,3.77
2018-05-10T16:20:32.125Z,3.90
2018-05-10T16:22:08.233Z,5.53
2018-05-10T16:23:44.843Z,2.57
2018-05-10T16:25:19.908Z,3.40
2018-05-10T16:26:55.046Z,3.80
2018-05-10T16:28:30.100Z,3.17
2018-05-10T16:30:05.959Z,2.10
2018-05-10T16:31:41.038Z,2.20
2018-05-10T16:33:16.115Z,5.67
2018-05-10T16:34:51.308Z,2.20
2018-05-10T16:36:27.433Z,2.53
2018-05-10T16:38:02.584Z,2.17
2018-05-10T16:39:37.640Z,2.50
2018-05-10T16:41:12.743Z,2.60
2018-05-10T16:42:47.816Z,2.73
2018-05-10T16:44:22.909Z,2.93
2018-05-10T16:45:58.001Z,2.33
2018-05-10T16:47:33.051Z,2.50
2018-05-10T16:49:08.159Z,3.80
2018-05-10T16:50:43.216Z,2.43
2018-05-10T16:52:19.039Z,2.87
2018-05-10T16:53:54.096Z,2.70
2018-05-10T16:55:29.199Z,3.97
2018-05-10T16:57:04.245Z,2.80
2018-05-10T16:58:39.310Z,2.73
2018-05-10T17:00:14.404Z,3.73
2018-05-10T17:01:49.484Z,2.80
2018-05-10T17:03:24.540Z,2.67
2018-05-10T17:04:59.664Z,2.67
2018-05-10T17:06:35.485Z,2.60
2018-05-10T17:08:10.537Z,3.70
2018-05-10T17:09:46.383Z,3.03
2018-05-10T17:11:21.476Z,3.53
2018-05-10T17:12:56.524Z,3.10
2018-05-10T17:14:31.613Z,2.90
2018-05-10T17:16:10.110Z,3.13
2018-05-10T17:17:45.179Z,3.40
2018-05-10T17:19:20.240Z,2.60
2018-05-10T17:20:55.365Z,3.23
2018-05-10T17:22:30.542Z,3.23
2018-05-10T17:24:05.902Z,8.87
2018-05-10T17:25:41.176Z,6.33
2018-05-10T17:27:16.295Z,4.70
2018-05-10T17:28:51.489Z,4.30
2018-05-10T17:30:26.570Z,4.27
2018-05-10T17:32:01.854Z,4.20
2018-05-10T17:33:37.214Z,5.10
2018-05-10T17:35:12.324Z,4.80
2018-05-10T17:36:47.981Z,11.83
2018-05-10T17:38:25.199Z,4.60
2018-05-10T17:40:00.264Z,5.10
2018-05-10T17:41:35.534Z,6.00
2018-05-10T17:43:10.612Z,6.10
2018-05-10T17:44:45.692Z,7.07
2018-05-10T17:46:20.744Z,8.70
2018-05-10T17:47:55.830Z,7.73
2018-05-10T17:49:30.891Z,8.23
2018-05-10T17:51:06.771Z,6.80
2018-05-10T17:52:41.862Z,7.40
2018-05-10T17:54:16.922Z,7.30
2018-05-10T17:55:52.004Z,6.67
2018-05-10T17:57:27.084Z,6.50
2018-05-10T17:59:02.134Z,8.40
2018-05-10T18:00:37.228Z,8.47
2018-05-10T18:02:12.322Z,10.37
2018-05-10T18:03:47.406Z,10.43
2018-05-10T18:05:23.254Z,11.13
2018-05-10T18:06:58.321Z,13.80
2018-05-10T18:08:33.561Z,14.60
2018-05-10T18:10:14.662Z,15.43
2018-05-10T18:11:51.041Z,18.73
2018-05-10T18:13:26.140Z,20.10
2018-05-10T18:15:01.592Z,17.57
2018-05-10T18:16:37.210Z,18.20
2018-05-10T18:18:13.349Z,18.83
2018-05-10T18:19:49.914Z,19.03
2018-05-10T18:21:26.139Z,16.57
2018-05-10T18:23:01.748Z,18.47
2018-05-10T18:24:36.817Z,17.83
2018-05-10T18:26:12.567Z,21.67
2018-05-10T18:27:50.430Z,17.50
2018-05-10T18:29:27.253Z,19.93
2018-05-10T18:31:02.380Z,20.17
2018-05-10T18:32:37.525Z,18.47
2018-05-10T18:34:14.934Z,23.00
2018-05-10T18:35:50.342Z,20.30
2018-05-10T18:37:25.417Z,23.77
2018-05-10T18:39:00.488Z,21.50
2018-05-10T18:40:35.555Z,20.47
2018-05-10T18:42:10.699Z,21.33
2018-05-10T18:43:45.767Z,21.37
2018-05-10T18:45:21.590Z,23.67
2018-05-10T18:46:56.646Z,23.50
2018-05-10T18:48:31.762Z,23.33
2018-05-10T18:50:08.462Z,25.43
2018-05-10T18:51:46.415Z,23.73
2018-05-10T18:53:22.157Z,22.23
2018-05-10T18:54:58.964Z,22.00
2018-05-10T18:56:34.900Z,19.03
2018-05-10T18:58:11.293Z,20.93
2018-05-10T18:59:46.401Z,20.93
2018-05-10T19:01:21.474Z,22.93
2018-05-10T19:02:56.538Z,22.43
2018-05-10T19:04:31.600Z,21.47
2018-05-10T19:06:06.692Z,20.07
2018-05-10T19:07:41.754Z,20.37
2018-05-10T19:09:17.620Z,20.53
2018-05-10T19:10:52.684Z,18.40
2018-05-10T19:12:27.795Z,18.90
2018-05-10T19:14:05.793Z,20.80
2018-05-10T19:15:41.418Z,20.93
2018-05-10T19:17:17.489Z,20.60
2018-05-10T19:18:52.535Z,19.67
2018-05-10T19:20:27.714Z,19.67
2018-05-10T19:22:02.962Z,20.47
2018-05-10T19:23:39.938Z,18.63
2018-05-10T19:25:15.811Z,20.53
2018-05-10T19:26:51.073Z,20.23
2018-05-10T19:28:26.151Z,20.53
2018-05-10T19:30:01.303Z,22.10
2018-05-10T19:31:36.617Z,20.97
2018-05-10T19:33:12.574Z,20.97
2018-05-10T19:34:48.808Z,19.33
2018-05-10T19:36:23.956Z,18.70
2018-05-10T19:37:59.637Z,19.13
2018-05-10T19:39:34.970Z,19.10
2018-05-10T19:41:10.729Z,19.03
2018-05-10T19:42:45.820Z,19.93
2018-05-10T19:44:21.760Z,18.97
2018-05-10T19:45:56.870Z,19.77
2018-05-10T19:47:38.786Z,18.53
2018-05-10T19:49:13.865Z,18.83
2018-05-10T19:50:49.684Z,17.67
2018-05-10T19:52:24.849Z,17.90
2018-05-10T19:53:59.902Z,14.97
2018-05-10T19:55:38.232Z,16.30
2018-05-10T19:57:14.137Z,16.23
2018-05-10T19:58:49.946Z,18.53
2018-05-10T20:00:25.157Z,16.50
2018-05-10T20:02:00.633Z,16.77
2018-05-10T20:03:35.788Z,18.70
2018-05-10T20:05:10.910Z,15.93
2018-05-10T20:06:46.345Z,16.47
2018-05-10T20:08:21.537Z,19.90
2018-05-10T20:09:57.424Z,18.40
2018-05-10T20:11:32.552Z,21.77
2018-05-10T20:13:09.675Z,19.03
2018-05-10T20:14:44.764Z,16.47
2018-05-10T20:16:19.940Z,15.33
2018-05-10T20:17:55.237Z,18.03
2018-05-10T20:19:30.340Z,16.20
2018-05-10T20:21:05.441Z,15.43
2018-05-10T20:22:40.591Z,15.27
2018-05-10T20:24:16.533Z,17.67
2018-05-10T20:25:52.337Z,17.63
2018-05-10T20:27:27.441Z,16.13
2018-05-10T20:29:02.573Z,17.67
2018-05-10T20:30:38.403Z,18.57
2018-05-10T20:32:13.658Z,18.83
2018-05-10T20:33:49.582Z,16.93
2018-05-10T20:35:25.852Z,18.73
2018-05-10T20:37:01.657Z,16.60
2018-05-10T20:38:37.634Z,17.60
2018-05-10T20:40:13.605Z,18.77
2018-05-10T20:41:48.759Z,18.07
2018-05-10T20:43:23.879Z,18.03
2018-05-10T20:44:59.426Z,17.43
2018-05-10T20:46:34.525Z,18.33
2018-05-10T20:48:12.891Z,19.00
2018-05-10T20:49:49.046Z,17.70
2018-05-10T20:51:24.173Z,18.27
2018-05-10T20:53:00.136Z,18.60
2018-05-10T20:54:35.210Z,18.37
2018-05-10T20:56:10.370Z,17.97
2018-05-10T20:57:47.280Z,17.70
2018-05-10T20:59:22.455Z,17.33
2018-05-10T21:00:57.550Z,15.37
2018-05-10T21:02:32.664Z,17.77
2018-05-10T21:04:08.529Z,16.90
2018-05-10T21:05:43.653Z,17.50
2018-05-10T21:07:18.811Z,13.83
2018-05-10T21:08:53.972Z,15.67
2018-05-10T21:10:29.633Z,15.43
2018-05-10T21:12:04.778Z,16.90
2018-05-10T21:13:39.904Z,14.73
2018-05-10T21:15:14.982Z,15.60
2018-05-10T21:16:50.069Z,14.20
2018-05-10T21:18:25.243Z,16.40
2018-05-10T21:20:00.382Z,17.03
2018-05-10T21:21:35.507Z,16.77
2018-05-10T21:23:11.282Z,16.53
2018-05-10T21:24:46.385Z,16.33
2018-05-10T21:26:21.469Z,17.23
2018-05-10T21:27:56.615Z,15.77
2018-05-10T21:29:37.351Z,14.90
2018-05-10T21:31:18.435Z,14.77
2018-05-10T21:32:54.426Z,14.50
2018-05-10T21:34:30.268Z,14.83
2018-05-10T21:36:05.455Z,14.73
2018-05-10T21:37:40.557Z,15.60
2018-05-10T21:39:15.688Z,14.63
2018-05-10T21:40:50.782Z,16.57
2018-05-10T21:42:25.895Z,15.77
2018-05-10T21:44:01.076Z,15.93
2018-05-10T21:45:36.223Z,15.67
2018-05-10T21:47:11.898Z,15.63
2018-05-10T21:48:47.060Z,14.33
2018-05-10T21:50:28.826Z,17.77
2018-05-10T21:52:03.927Z,17.33
2018-05-10T21:53:39.800Z,17.00
2018-05-10T21:55:16.156Z,17.23
2018-05-10T21:56:51.286Z,16.53
2018-05-10T21:58:26.468Z,14.60
2018-05-10T22:00:01.566Z,15.03
2018-05-10T22:01:36.663Z,16.63
2018-05-10T22:03:11.775Z,15.13
2018-05-10T22:04:46.905Z,13.97
2018-05-10T22:06:22.060Z,14.77
2018-05-10T22:07:57.149Z,15.77
2018-05-10T22:09:32.252Z,15.03
2018-05-10T22:11:07.349Z,14.77
2018-05-10T22:12:42.543Z,15.57
2018-05-10T22:14:18.870Z,15.47
2018-05-10T22:15:55.918Z,15.03
2018-05-10T22:17:31.076Z,14.37
2018-05-10T22:19:06.846Z,16.23
2018-05-10T22:20:42.724Z,14.97
2018-05-10T22:22:17.877Z,15.70
2018-05-10T22:23:53.777Z,15.57
2018-05-10T22:25:29.781Z,14.57
2018-05-10T22:27:05.643Z,15.80
2018-05-10T22:28:41.570Z,15.37
2018-05-10T22:30:16.695Z,15.57
2018-05-10T22:31:51.833Z,15.20
2018-05-10T22:33:26.991Z,14.33
2018-05-10T22:35:02.170Z,14.87
2018-05-10T22:36:37.170Z,14.60
2018-05-10T22:38:12.238Z,14.57
2018-05-10T22:39:47.371Z,15.57
2018-05-10T22:41:22.443Z,15.70
2018-05-10T22:42:57.508Z,15.10
2018-05-10T22:44:32.611Z,14.53
2018-05-10T22:46:07.717Z,15.33
2018-05-10T22:47:42.832Z,14.27
2018-05-10T22:49:17.948Z,13.77
2018-05-10T22:50:53.038Z,15.60
2018-05-10T22:52:28.161Z,14.57
2018-05-10T22:54:03.269Z,14.33
2018-05-10T22:55:38.369Z,14.70
2018-05-10T22:57:13.475Z,14.83
2018-05-10T22:58:48.554Z,17.07
2018-05-10T23:00:24.411Z,14.87
2018-05-10T23:01:59.524Z,14.00
2018-05-10T23:03:34.573Z,15.37
2018-05-10T23:05:09.701Z,14.50
2018-05-10T23:06:44.811Z,14.00
2018-05-10T23:08:20.655Z,15.43
2018-05-10T23:09:55.808Z,16.27
2018-05-10T23:11:30.879Z,15.60
2018-05-10T23:13:05.942Z,15.47
2018-05-10T23:14:41.174Z,16.33
2018-05-10T23:16:17.037Z,15.97
2018-05-10T23:17:52.131Z,16.63
2018-05-10T23:19:27.994Z,13.20
2018-05-10T23:21:03.106Z,16.17
2018-05-10T23:22:38.201Z,15.70
2018-05-10T23:24:13.305Z,17.33
2018-05-10T23:25:48.414Z,16.33
2018-05-10T23:27:23.491Z,15.97
2018-05-10T23:28:58.589Z,17.27
2018-05-10T23:30:33.650Z,17.70
2018-05-10T23:32:08.754Z,17.27
2018-05-10T23:33:44.803Z,17.30
2018-05-10T23:35:19.922Z,18.77
2018-05-10T23:36:55.829Z,18.07
2018-05-10T23:38:31.008Z,15.40
2018-05-10T23:40:06.140Z,17.13
2018-05-10T23:41:41.793Z,17.40
2018-05-10T23:43:16.956Z,18.77
2018-05-10T23:44:52.808Z,19.63
2018-05-10T23:46:27.923Z,19.40
2018-05-10T23:48:03.590Z,18.00
2018-05-10T23:49:38.797Z,17.03
2018-05-10T23:51:14.584Z,18.00
2018-05-10T23:52:50.666Z,17.67
2018-05-10T23:54:25.785Z,18.40
2018-05-10T23:56:00.913Z,17.63
2018-05-10T23:57:36.772Z,17.73
2018-05-10T23:59:11.885Z,16.80
